createdAt,value
2018-01-29T00:00:35.616Z,18.90
2018-01-29T00:01:35.610Z,16.70
2018-01-29T00:02:35.607Z,17.50
2018-01-29T00:03:35.603Z,15.30
2018-01-29T00:04:35.601Z,14.20
2018-01-29T00:05:35.600Z,15.10
2018-01-29T00:06:35.594Z,15.10
2018-01-29T00:07:35.591Z,18.30
2018-01-29T00:08:35.589Z,17.20
2018-01-29T00:09:35.584Z,15.10
2018-01-29T00:10:35.583Z,17.00
2018-01-29T00:11:35.579Z,22.10
2018-01-29T00:12:35.579Z,11.10
2018-01-29T00:13:35.573Z,13.90
2018-01-29T00:14:35.572Z,12.10
2018-01-29T00:15:35.567Z,14.30
2018-01-29T00:16:35.567Z,14.80
2018-01-29T00:17:35.561Z,15.80
2018-01-29T00:18:35.560Z,14.90
2018-01-29T00:19:35.557Z,22.20
2018-01-29T00:20:35.555Z,20.90
2018-01-29T00:21:35.549Z,14.10
2018-01-29T00:22:35.548Z,16.50
2018-01-29T00:23:35.545Z,15.60
2018-01-29T00:24:35.541Z,13.70
2018-01-29T00:25:35.537Z,15.50
2018-01-29T00:26:35.534Z,19.00
2018-01-29T00:27:35.535Z,11.10
2018-01-29T00:28:35.530Z,13.60
2018-01-29T00:29:35.526Z,17.50
2018-01-29T00:30:35.522Z,17.90
2018-01-29T00:31:35.523Z,12.10
2018-01-29T00:32:35.517Z,17.30
2018-01-29T00:33:35.514Z,13.40
2018-01-29T00:34:35.511Z,19.60
2018-01-29T00:35:35.508Z,15.30
2018-01-29T00:36:35.505Z,17.70
2018-01-29T00:37:35.502Z,17.60
2018-01-29T00:38:35.500Z,16.70
2018-01-29T00:39:35.495Z,10.60
2018-01-29T00:40:35.494Z,11.20
2018-01-29T00:41:35.490Z,19.80
2018-01-29T00:42:35.487Z,13.30
2018-01-29T00:43:35.483Z,12.90
2018-01-29T00:44:35.481Z,14.00
2018-01-29T00:45:35.477Z,11.10
2018-01-29T00:46:35.476Z,13.70
2018-01-29T00:47:35.471Z,14.30
2018-01-29T00:48:35.469Z,12.20
2018-01-29T00:49:35.465Z,12.80
2018-01-29T00:50:35.464Z,14.10
2018-01-29T00:51:35.460Z,11.90
2018-01-29T00:52:35.457Z,13.40
2018-01-29T00:53:35.453Z,13.00
2018-01-29T00:54:35.451Z,11.50
2018-01-29T00:55:35.449Z,14.40
2018-01-29T00:56:35.446Z,18.30
2018-01-29T00:57:35.442Z,15.50
2018-01-29T00:58:35.439Z,13.00
2018-01-29T00:59:35.438Z,10.70
2018-01-29T01:00:35.435Z,13.60
2018-01-29T01:01:35.430Z,12.40
2018-01-29T01:02:35.432Z,12.20
2018-01-29T01:03:35.425Z,14.60
2018-01-29T01:04:35.423Z,9.30
2018-01-29T01:05:35.418Z,16.70
2018-01-29T01:06:35.415Z,16.10
2018-01-29T01:07:35.412Z,14.00
2018-01-29T01:08:35.411Z,12.50
2018-01-29T01:09:35.408Z,12.70
2018-01-29T01:10:35.403Z,14.40
2018-01-29T01:11:35.402Z,19.80
2018-01-29T01:12:35.405Z,10.30
2018-01-29T01:13:35.394Z,12.20
2018-01-29T01:14:35.391Z,16.30
2018-01-29T01:15:35.388Z,13.80
2018-01-29T01:16:35.386Z,18.90
2018-01-29T01:17:35.382Z,12.00
2018-01-29T01:18:35.383Z,12.10
2018-01-29T01:19:35.376Z,14.20
2018-01-29T01:20:35.374Z,13.00
2018-01-29T01:21:35.369Z,12.10
2018-01-29T01:22:35.368Z,12.90
2018-01-29T01:23:35.365Z,12.40
2018-01-29T01:24:35.361Z,18.00
2018-01-29T01:25:35.357Z,12.80
2018-01-29T01:26:35.356Z,15.20
2018-01-29T01:27:35.352Z,14.40
2018-01-29T01:28:35.349Z,12.80
2018-01-29T01:29:35.345Z,12.30
2018-01-29T01:30:35.342Z,13.30
2018-01-29T01:31:35.338Z,14.70
2018-01-29T01:32:35.336Z,17.60
2018-01-29T01:33:35.332Z,13.40
2018-01-29T01:34:35.331Z,22.40
2018-01-29T01:35:35.327Z,16.70
2018-01-29T01:36:35.324Z,15.90
2018-01-29T01:37:35.321Z,13.70
2018-01-29T01:38:35.353Z,16.60
2018-01-29T01:39:35.316Z,17.10
2018-01-29T01:40:35.312Z,17.20
2018-01-29T01:41:35.309Z,17.50
2018-01-29T01:42:35.310Z,18.20
2018-01-29T01:43:35.303Z,15.20
2018-01-29T01:44:35.300Z,17.70
2018-01-29T01:45:35.295Z,16.40
2018-01-29T01:46:35.294Z,16.60
2018-01-29T01:47:35.291Z,16.80
2018-01-29T01:48:35.288Z,16.90
2018-01-29T01:49:35.282Z,19.40
2018-01-29T01:50:35.281Z,21.00
2018-01-29T01:51:35.279Z,22.10
2018-01-29T01:52:35.275Z,22.70
2018-01-29T01:53:35.270Z,16.90
2018-01-29T01:54:35.267Z,15.30
2018-01-29T01:55:35.265Z,21.10
2018-01-29T01:56:35.265Z,21.20
2018-01-29T01:57:35.259Z,20.00
2018-01-29T01:58:35.255Z,19.50
2018-01-29T01:59:35.254Z,18.30
2018-01-29T02:00:35.249Z,18.30
2018-01-29T02:01:35.246Z,24.60
2018-01-29T02:02:35.242Z,18.40
2018-01-29T02:03:35.241Z,16.00
2018-01-29T02:04:35.237Z,18.40
2018-01-29T02:05:35.232Z,17.00
2018-01-29T02:06:35.230Z,18.80
2018-01-29T02:07:35.226Z,19.40
2018-01-29T02:08:35.224Z,21.90
2018-01-29T02:09:35.220Z,19.30
2018-01-29T02:10:35.218Z,18.30
2018-01-29T02:11:35.214Z,15.10
2018-01-29T02:12:35.211Z,17.50
2018-01-29T02:13:35.207Z,21.60
2018-01-29T02:14:35.206Z,12.50
2018-01-29T02:15:35.202Z,13.50
2018-01-29T02:16:35.199Z,20.70
2018-01-29T02:17:35.195Z,18.80
2018-01-29T02:18:35.191Z,15.20
2018-01-29T02:19:35.190Z,15.00
2018-01-29T02:20:35.187Z,21.20
2018-01-29T02:21:35.182Z,12.10
2018-01-29T02:22:35.183Z,11.20
2018-01-29T02:23:35.176Z,12.10
2018-01-29T02:24:35.173Z,11.50
2018-01-29T02:25:35.169Z,13.10
2018-01-29T02:26:35.168Z,8.40
2018-01-29T02:27:35.166Z,11.00
2018-01-29T02:28:35.162Z,16.90
2018-01-29T02:29:35.157Z,11.40
2018-01-29T02:30:35.154Z,8.00
2018-01-29T02:31:35.151Z,14.90
2018-01-29T02:32:35.148Z,7.40
2018-01-29T02:33:35.145Z,11.80
2018-01-29T02:34:35.143Z,9.80
2018-01-29T02:35:35.138Z,12.00
2018-01-29T02:36:35.136Z,7.90
2018-01-29T02:37:35.132Z,9.00
2018-01-29T02:38:35.128Z,9.10
2018-01-29T02:39:35.125Z,7.20
2018-01-29T02:40:35.123Z,10.70
2018-01-29T02:41:35.119Z,6.90
2018-01-29T02:42:35.118Z,6.10
2018-01-29T02:43:35.113Z,12.20
2018-01-29T02:44:35.110Z,13.60
2018-01-29T02:45:35.107Z,7.70
2018-01-29T02:46:35.103Z,13.70
2018-01-29T02:47:35.104Z,5.40
2018-01-29T02:48:35.098Z,10.00
2018-01-29T02:49:35.095Z,6.60
2018-01-29T02:50:35.090Z,10.30
2018-01-29T02:51:35.087Z,7.20
2018-01-29T02:52:35.085Z,7.30
2018-01-29T02:53:35.084Z,6.70
2018-01-29T02:54:35.079Z,6.20
2018-01-29T02:55:35.075Z,8.60
2018-01-29T02:56:35.072Z,6.30
2018-01-29T02:57:35.069Z,5.30
2018-01-29T02:58:35.067Z,6.80
2018-01-29T02:59:35.062Z,8.80
2018-01-29T03:00:35.060Z,6.60
2018-01-29T03:01:35.059Z,6.10
2018-01-29T03:02:35.056Z,5.00
2018-01-29T03:03:35.050Z,6.40
2018-01-29T03:04:35.050Z,5.40
2018-01-29T03:05:35.046Z,6.20
2018-01-29T03:06:35.040Z,4.50
2018-01-29T03:07:35.038Z,4.50
2018-01-29T03:08:35.035Z,4.70
2018-01-29T03:09:35.030Z,4.90
2018-01-29T03:10:35.027Z,9.00
2018-01-29T03:11:35.025Z,5.00
2018-01-29T03:12:35.023Z,6.10
2018-01-29T03:13:35.017Z,4.90
2018-01-29T03:14:35.015Z,5.50
2018-01-29T03:15:35.012Z,7.10
2018-01-29T03:16:35.009Z,7.40
2018-01-29T03:17:35.007Z,5.40
2018-01-29T03:18:35.003Z,6.50
2018-01-29T03:19:34.999Z,9.50
2018-01-29T03:20:34.997Z,5.60
2018-01-29T03:21:34.994Z,5.90
2018-01-29T03:22:34.993Z,9.20
2018-01-29T03:23:34.988Z,6.40
2018-01-29T03:24:34.985Z,7.90
2018-01-29T03:25:34.981Z,6.40
2018-01-29T03:26:34.980Z,6.20
2018-01-29T03:27:34.976Z,6.20
2018-01-29T03:28:34.972Z,4.90
2018-01-29T03:29:34.968Z,4.60
2018-01-29T03:30:34.966Z,6.90
2018-01-29T03:31:34.964Z,5.00
2018-01-29T03:32:34.960Z,6.60
2018-01-29T03:33:34.959Z,6.00
2018-01-29T03:34:34.952Z,6.30
2018-01-29T03:35:34.951Z,6.80
2018-01-29T03:36:34.948Z,8.50
2018-01-29T03:37:34.944Z,4.90
2018-01-29T03:38:34.941Z,7.00
2018-01-29T03:39:34.938Z,10.90
2018-01-29T03:40:34.935Z,8.20
2018-01-29T03:41:34.931Z,5.70
2018-01-29T03:42:34.928Z,6.20
2018-01-29T03:43:34.967Z,5.50
2018-01-29T03:44:34.922Z,4.90
2018-01-29T03:45:34.923Z,8.50
2018-01-29T03:46:34.916Z,5.30
2018-01-29T03:47:34.912Z,5.80
2018-01-29T03:48:34.910Z,5.10
2018-01-29T03:49:34.906Z,5.80
2018-01-29T03:50:34.904Z,6.20
2018-01-29T03:51:34.901Z,5.50
2018-01-29T03:52:34.897Z,6.00
2018-01-29T03:53:34.894Z,5.40
2018-01-29T03:54:34.890Z,7.80
2018-01-29T03:55:34.893Z,7.30
2018-01-29T03:56:34.885Z,5.20
2018-01-29T03:57:34.881Z,5.20
2018-01-29T03:58:34.879Z,6.80
2018-01-29T03:59:34.875Z,7.40
2018-01-29T04:00:34.874Z,10.20
2018-01-29T04:01:34.869Z,4.70
2018-01-29T04:02:34.865Z,7.80
2018-01-29T04:03:34.863Z,5.20
2018-01-29T04:04:34.861Z,6.10
2018-01-29T04:05:34.857Z,6.00
2018-01-29T04:06:34.853Z,4.90
2018-01-29T04:07:34.850Z,4.40
2018-01-29T04:08:34.849Z,4.70
2018-01-29T04:09:34.844Z,8.30
2018-01-29T04:10:34.841Z,6.80
2018-01-29T04:11:34.838Z,5.50
2018-01-29T04:12:34.837Z,6.20
2018-01-29T04:13:34.837Z,8.50
2018-01-29T04:14:34.829Z,6.90
2018-01-29T04:15:34.827Z,5.00
2018-01-29T04:16:34.823Z,10.40
2018-01-29T04:17:34.820Z,7.30
2018-01-29T04:18:34.817Z,7.30
2018-01-29T04:19:34.815Z,8.00
2018-01-29T04:20:34.811Z,5.30
2018-01-29T04:21:34.807Z,11.00
2018-01-29T04:22:34.804Z,4.70
2018-01-29T04:23:34.803Z,8.90
2018-01-29T04:24:34.800Z,6.20
2018-01-29T04:25:34.795Z,6.50
2018-01-29T04:26:34.792Z,7.90
2018-01-29T04:27:34.789Z,12.60
2018-01-29T04:28:34.786Z,7.40
2018-01-29T04:29:34.784Z,8.00
2018-01-29T04:30:34.781Z,8.10
2018-01-29T04:31:34.778Z,8.50
2018-01-29T04:32:34.829Z,11.90
2018-01-29T04:33:34.772Z,6.00
2018-01-29T04:34:34.768Z,12.10
2018-01-29T04:35:34.765Z,10.10
2018-01-29T04:36:34.763Z,11.40
2018-01-29T04:37:34.758Z,7.90
2018-01-29T04:38:34.756Z,8.80
2018-01-29T04:39:34.753Z,7.50
2018-01-29T04:40:34.750Z,6.40
2018-01-29T04:41:34.747Z,10.80
2018-01-29T04:42:34.744Z,5.50
2018-01-29T04:43:34.741Z,9.00
2018-01-29T04:44:34.739Z,8.00
2018-01-29T04:45:34.735Z,4.60
2018-01-29T04:46:34.733Z,5.60
2018-01-29T04:47:34.729Z,9.10
2018-01-29T04:48:34.726Z,5.50
2018-01-29T04:49:34.722Z,5.70
2018-01-29T04:50:34.719Z,8.90
2018-01-29T04:51:34.717Z,9.30
2018-01-29T04:52:34.715Z,5.30
2018-01-29T04:53:34.712Z,5.60
2018-01-29T04:54:34.708Z,4.60
2018-01-29T04:55:34.706Z,10.10
2018-01-29T04:56:34.703Z,6.80
2018-01-29T04:57:34.699Z,10.50
2018-01-29T04:58:34.697Z,7.60
2018-01-29T04:59:34.694Z,5.40
2018-01-29T05:00:34.692Z,7.90
2018-01-29T05:01:34.688Z,6.30
2018-01-29T05:02:34.685Z,7.30
2018-01-29T05:03:34.681Z,9.00
2018-01-29T05:04:34.678Z,7.30
2018-01-29T05:05:34.674Z,8.60
2018-01-29T05:06:34.673Z,6.30
2018-01-29T05:07:34.669Z,7.00
2018-01-29T05:08:34.667Z,5.60
2018-01-29T05:09:34.663Z,10.40
2018-01-29T05:10:34.660Z,5.30
2018-01-29T05:11:34.657Z,7.10
2018-01-29T05:12:34.655Z,7.00
2018-01-29T05:13:34.652Z,6.50
2018-01-29T05:14:34.652Z,6.30
2018-01-29T05:15:34.645Z,6.70
2018-01-29T05:16:34.642Z,8.60
2018-01-29T05:17:34.639Z,9.40
2018-01-29T05:18:34.637Z,9.80
2018-01-29T05:19:34.634Z,4.90
2018-01-29T05:20:34.631Z,7.10
2018-01-29T05:21:34.628Z,8.10
2018-01-29T05:22:34.625Z,10.40
2018-01-29T05:23:34.622Z,11.90
2018-01-29T05:24:34.622Z,10.90
2018-01-29T05:25:34.615Z,6.30
2018-01-29T05:26:34.612Z,6.20
2018-01-29T05:27:34.609Z,6.60
2018-01-29T05:28:34.607Z,11.50
2018-01-29T05:29:34.604Z,6.60
2018-01-29T05:30:34.600Z,10.50
2018-01-29T05:31:34.597Z,9.00
2018-01-29T05:32:34.595Z,5.40
2018-01-29T05:33:34.594Z,10.90
2018-01-29T05:34:34.587Z,4.20
2018-01-29T05:35:34.585Z,9.60
2018-01-29T05:36:34.584Z,10.50
2018-01-29T05:37:34.580Z,5.10
2018-01-29T05:38:34.576Z,5.20
2018-01-29T05:39:34.573Z,10.90
2018-01-29T05:40:34.571Z,7.60
2018-01-29T05:41:34.567Z,9.80
2018-01-29T05:42:34.565Z,6.00
2018-01-29T05:43:34.561Z,7.30
2018-01-29T05:44:34.558Z,10.90
2018-01-29T05:45:34.557Z,5.30
2018-01-29T05:46:34.553Z,10.30
2018-01-29T05:47:34.550Z,7.00
2018-01-29T05:48:34.547Z,6.90
2018-01-29T05:49:34.545Z,7.70
2018-01-29T05:50:34.540Z,7.20
2018-01-29T05:51:34.538Z,6.60
2018-01-29T05:52:34.535Z,6.60
2018-01-29T05:53:34.530Z,7.80
2018-01-29T05:54:34.530Z,8.70
2018-01-29T05:55:34.526Z,9.10
2018-01-29T05:56:34.523Z,10.30
2018-01-29T05:57:34.518Z,6.90
2018-01-29T05:58:34.516Z,8.50
2018-01-29T05:59:34.515Z,5.50
2018-01-29T06:00:34.511Z,3.90
2018-01-29T06:01:34.508Z,6.20
2018-01-29T06:02:34.504Z,3.80
2018-01-29T06:03:34.500Z,5.20
2018-01-29T06:04:34.499Z,7.60
2018-01-29T06:05:34.495Z,6.60
2018-01-29T06:06:34.492Z,4.10
2018-01-29T06:07:34.489Z,9.60
2018-01-29T06:08:34.487Z,6.90
2018-01-29T06:09:34.484Z,5.30
2018-01-29T06:10:34.480Z,5.40
2018-01-29T06:11:34.478Z,10.10
2018-01-29T06:12:34.475Z,8.70
2018-01-29T06:13:34.472Z,6.90
2018-01-29T06:14:34.468Z,6.30
2018-01-29T06:15:34.466Z,4.00
2018-01-29T06:16:34.464Z,6.80
2018-01-29T06:17:34.460Z,5.30
2018-01-29T06:18:34.458Z,8.50
2018-01-29T06:19:34.453Z,7.80
2018-01-29T06:20:34.451Z,6.80
2018-01-29T06:21:34.449Z,6.60
2018-01-29T06:22:34.446Z,7.30
2018-01-29T06:23:34.443Z,6.50
2018-01-29T06:24:34.440Z,12.50
2018-01-29T06:25:34.437Z,6.30
2018-01-29T06:26:34.433Z,7.50
2018-01-29T06:27:34.432Z,4.90
2018-01-29T06:28:34.427Z,7.20
2018-01-29T06:29:34.425Z,7.50
2018-01-29T06:30:34.421Z,6.50
2018-01-29T06:31:34.419Z,8.90
2018-01-29T06:32:34.416Z,5.70
2018-01-29T06:33:34.412Z,6.80
2018-01-29T06:34:34.410Z,6.40
2018-01-29T06:35:34.406Z,9.80
2018-01-29T06:36:34.405Z,8.50
2018-01-29T06:37:34.400Z,5.40
2018-01-29T06:38:34.397Z,5.50
2018-01-29T06:39:34.400Z,9.20
2018-01-29T06:40:34.392Z,5.90
2018-01-29T06:41:34.388Z,11.60
2018-01-29T06:42:34.386Z,6.10
2018-01-29T06:43:34.383Z,11.70
2018-01-29T06:44:34.386Z,3.50
2018-01-29T06:45:34.378Z,7.70
2018-01-29T06:46:34.373Z,6.10
2018-01-29T06:47:34.371Z,5.70
2018-01-29T06:48:34.368Z,5.00
2018-01-29T06:49:34.364Z,7.20
2018-01-29T06:50:34.363Z,9.80
2018-01-29T06:51:34.358Z,6.90
2018-01-29T06:52:34.356Z,4.80
2018-01-29T06:53:34.352Z,12.80
2018-01-29T06:54:34.349Z,6.50
2018-01-29T06:55:34.347Z,12.70
2018-01-29T06:56:34.344Z,8.90
2018-01-29T06:57:34.341Z,6.40
2018-01-29T06:58:34.340Z,8.50
2018-01-29T06:59:34.335Z,6.60
2018-01-29T07:00:34.332Z,10.50
2018-01-29T07:01:34.327Z,6.30
2018-01-29T07:02:34.325Z,9.50
2018-01-29T07:03:34.324Z,4.80
2018-01-29T07:04:34.325Z,6.10
2018-01-29T07:05:34.316Z,8.50
2018-01-29T07:06:34.314Z,8.10
2018-01-29T07:07:34.312Z,8.80
2018-01-29T07:08:34.308Z,6.90
2018-01-29T07:09:34.305Z,11.40
2018-01-29T07:10:34.302Z,5.60
2018-01-29T07:11:34.301Z,14.60
2018-01-29T07:12:34.297Z,7.30
2018-01-29T07:13:34.294Z,8.90
2018-01-29T07:14:34.289Z,14.80
2018-01-29T07:15:34.288Z,7.40
2018-01-29T07:16:34.285Z,5.70
2018-01-29T07:17:34.281Z,8.50
2018-01-29T07:18:34.279Z,5.50
2018-01-29T07:19:34.276Z,10.00
2018-01-29T07:20:34.272Z,13.60
2018-01-29T07:21:34.270Z,10.00
2018-01-29T07:22:34.266Z,11.90
2018-01-29T07:23:34.265Z,6.50
2018-01-29T07:24:34.261Z,5.60
2018-01-29T07:25:34.258Z,10.30
2018-01-29T07:26:34.257Z,9.40
2018-01-29T07:27:34.253Z,7.10
2018-01-29T07:28:34.250Z,6.30
2018-01-29T07:29:34.245Z,8.30
2018-01-29T07:30:34.242Z,11.00
2018-01-29T07:31:34.240Z,12.30
2018-01-29T07:32:34.243Z,11.20
2018-01-29T07:33:34.233Z,6.30
2018-01-29T07:34:34.231Z,7.30
2018-01-29T07:35:34.228Z,10.60
2018-01-29T07:36:34.230Z,10.20
2018-01-29T07:37:34.221Z,10.40
2018-01-29T07:38:34.219Z,8.20
2018-01-29T07:39:34.216Z,7.80
2018-01-29T07:40:34.213Z,8.20
2018-01-29T07:41:34.210Z,10.00
2018-01-29T07:42:34.208Z,7.10
2018-01-29T07:43:34.205Z,18.40
2018-01-29T07:44:34.204Z,6.10
2018-01-29T07:45:34.199Z,9.90
2018-01-29T07:46:34.196Z,10.50
2018-01-29T07:47:34.192Z,12.40
2018-01-29T07:48:34.190Z,7.90
2018-01-29T07:49:34.187Z,14.00
2018-01-29T07:50:34.184Z,8.20
2018-01-29T07:51:34.184Z,7.60
2018-01-29T07:52:34.207Z,14.50
2018-01-29T07:53:34.177Z,9.40
2018-01-29T07:54:34.172Z,15.10
2018-01-29T07:55:34.175Z,5.00
2018-01-29T07:56:34.166Z,8.60
2018-01-29T07:57:34.163Z,5.30
2018-01-29T07:58:34.159Z,12.90
2018-01-29T07:59:34.157Z,6.90
2018-01-29T08:00:34.154Z,9.80
2018-01-29T08:01:34.155Z,9.50
2018-01-29T08:02:34.148Z,10.70
2018-01-29T08:03:34.145Z,10.40
2018-01-29T08:04:34.142Z,9.40
2018-01-29T08:05:34.138Z,6.60
2018-01-29T08:06:34.136Z,14.40
2018-01-29T08:07:34.134Z,14.00
2018-01-29T08:08:34.130Z,9.70
2018-01-29T08:09:34.126Z,12.20
2018-01-29T08:10:34.123Z,16.60
2018-01-29T08:11:34.122Z,13.90
2018-01-29T08:12:34.118Z,11.60
2018-01-29T08:13:34.116Z,11.30
2018-01-29T08:14:34.111Z,11.60
2018-01-29T08:15:34.108Z,9.20
2018-01-29T08:16:34.105Z,10.10
2018-01-29T08:17:34.101Z,6.20
2018-01-29T08:18:34.098Z,9.40
2018-01-29T08:19:34.095Z,9.30
2018-01-29T08:20:34.094Z,11.50
2018-01-29T08:21:34.090Z,6.30
2018-01-29T08:22:34.086Z,9.30
2018-01-29T08:23:34.083Z,9.80
2018-01-29T08:24:34.080Z,10.30
2018-01-29T08:25:34.077Z,11.70
2018-01-29T08:26:34.073Z,10.20
2018-01-29T08:27:34.072Z,17.30
2018-01-29T08:28:34.068Z,13.00
2018-01-29T08:29:34.066Z,7.50
2018-01-29T08:30:34.062Z,9.50
2018-01-29T08:31:34.059Z,9.50
2018-01-29T08:32:34.055Z,8.70
2018-01-29T08:33:34.052Z,10.30
2018-01-29T08:34:34.048Z,13.60
2018-01-29T08:35:34.046Z,9.20
2018-01-29T08:36:34.044Z,9.50
2018-01-29T08:37:34.039Z,13.60
2018-01-29T08:38:34.036Z,13.50
2018-01-29T08:39:34.034Z,11.60
2018-01-29T08:40:34.031Z,12.60
2018-01-29T08:41:34.026Z,9.50
2018-01-29T08:42:34.023Z,9.30
2018-01-29T08:43:34.020Z,7.00
2018-01-29T08:44:34.019Z,6.90
2018-01-29T08:45:34.014Z,14.30
2018-01-29T08:46:34.011Z,8.20
2018-01-29T08:47:34.008Z,5.80
2018-01-29T08:48:34.005Z,12.20
2018-01-29T08:49:34.002Z,10.60
2018-01-29T08:50:34.000Z,9.00
2018-01-29T08:51:33.995Z,10.90
2018-01-29T08:52:33.993Z,19.40
2018-01-29T08:53:33.989Z,9.10
2018-01-29T08:54:33.988Z,8.70
2018-01-29T08:55:33.984Z,7.70
2018-01-29T08:56:33.981Z,8.30
2018-01-29T08:57:33.977Z,4.90
2018-01-29T08:58:33.974Z,14.40
2018-01-29T08:59:34.029Z,5.50
2018-01-29T09:00:33.968Z,9.50
2018-01-29T09:01:33.965Z,11.90
2018-01-29T09:02:33.961Z,6.20
2018-01-29T09:03:33.960Z,6.30
2018-01-29T09:04:33.958Z,7.20
2018-01-29T09:05:33.952Z,5.90
2018-01-29T09:06:33.949Z,7.90
2018-01-29T09:07:33.947Z,10.20
2018-01-29T09:08:33.944Z,5.60
2018-01-29T09:09:33.941Z,6.80
2018-01-29T09:10:33.938Z,9.70
2018-01-29T09:11:33.935Z,9.10
2018-01-29T09:12:33.934Z,8.90
2018-01-29T09:13:33.929Z,6.60
2018-01-29T09:14:33.926Z,7.90
2018-01-29T09:15:33.923Z,5.60
2018-01-29T09:16:33.921Z,6.90
2018-01-29T09:17:33.924Z,3.50
2018-01-29T09:18:33.937Z,6.40
2018-01-29T09:19:33.911Z,6.20
2018-01-29T09:20:33.908Z,10.80
2018-01-29T09:21:33.905Z,4.90
2018-01-29T09:22:33.903Z,5.50
2018-01-29T09:23:33.899Z,4.40
2018-01-29T09:24:33.897Z,9.20
2018-01-29T09:25:33.895Z,7.90
2018-01-29T09:26:33.891Z,3.10
2018-01-29T09:27:33.888Z,3.30
2018-01-29T09:28:33.885Z,4.90
2018-01-29T09:29:33.881Z,7.20
2018-01-29T09:30:33.878Z,7.10
2018-01-29T09:31:33.876Z,6.10
2018-01-29T09:32:33.872Z,10.40
2018-01-29T09:33:33.869Z,6.10
2018-01-29T09:34:33.866Z,8.60
2018-01-29T09:35:33.865Z,6.10
2018-01-29T09:36:33.861Z,8.50
2018-01-29T09:37:33.863Z,9.50
2018-01-29T09:38:33.854Z,3.30
2018-01-29T09:39:33.856Z,5.50
2018-01-29T09:40:33.849Z,4.70
2018-01-29T09:41:33.845Z,6.80
2018-01-29T09:42:33.842Z,4.20
2018-01-29T09:43:33.840Z,6.80
2018-01-29T09:44:33.837Z,6.80
2018-01-29T09:45:33.833Z,5.20
2018-01-29T09:46:33.833Z,7.80
2018-01-29T09:47:33.877Z,6.40
2018-01-29T09:48:33.825Z,5.40
2018-01-29T09:49:33.822Z,6.90
2018-01-29T09:50:33.818Z,6.70
2018-01-29T09:51:33.816Z,10.70
2018-01-29T09:52:33.813Z,6.80
2018-01-29T09:53:33.812Z,6.20
2018-01-29T09:54:33.807Z,5.80
2018-01-29T09:55:33.804Z,6.80
2018-01-29T09:56:33.802Z,6.00
2018-01-29T09:57:33.799Z,8.30
2018-01-29T09:58:33.795Z,4.50
2018-01-29T09:59:33.792Z,3.60
2018-01-29T10:00:33.790Z,6.40
2018-01-29T10:01:33.786Z,5.90
2018-01-29T10:02:33.784Z,4.60
2018-01-29T10:03:33.781Z,5.30
2018-01-29T10:04:33.778Z,4.40
2018-01-29T10:05:33.773Z,5.10
2018-01-29T10:06:33.770Z,6.50
2018-01-29T10:07:33.768Z,7.10
2018-01-29T10:08:33.765Z,7.80
2018-01-29T10:09:33.762Z,5.10
2018-01-29T10:10:33.758Z,7.60
2018-01-29T10:11:33.755Z,6.60
2018-01-29T10:12:33.753Z,4.20
2018-01-29T10:13:33.771Z,3.90
2018-01-29T10:14:33.746Z,6.80
2018-01-29T10:15:33.744Z,4.60
2018-01-29T10:16:33.742Z,3.30
2018-01-29T10:17:33.738Z,3.30
2018-01-29T10:18:33.735Z,4.80
2018-01-29T10:19:33.732Z,11.10
2018-01-29T10:20:33.731Z,4.70
2018-01-29T10:21:33.726Z,5.80
2018-01-29T10:22:33.723Z,6.20
2018-01-29T10:23:33.722Z,3.10
2018-01-29T10:24:33.718Z,7.00
2018-01-29T10:25:33.716Z,3.80
2018-01-29T10:26:33.713Z,4.90
2018-01-29T10:27:33.709Z,8.90
2018-01-29T10:28:33.707Z,5.70
2018-01-29T10:29:33.704Z,5.70
2018-01-29T10:30:33.700Z,5.60
2018-01-29T10:31:33.697Z,4.80
2018-01-29T10:32:33.696Z,6.50
2018-01-29T10:33:33.693Z,5.30
2018-01-29T10:34:33.688Z,4.20
2018-01-29T10:35:33.691Z,7.10
2018-01-29T10:36:33.682Z,6.90
2018-01-29T10:37:33.680Z,6.80
2018-01-29T10:38:33.678Z,4.80
2018-01-29T10:39:33.675Z,3.70
2018-01-29T10:40:33.672Z,3.60
2018-01-29T10:41:33.669Z,4.70
2018-01-29T10:42:33.701Z,10.00
2018-01-29T10:43:33.664Z,6.60
2018-01-29T10:44:33.661Z,4.30
2018-01-29T10:45:33.700Z,4.20
2018-01-29T10:46:33.656Z,6.20
2018-01-29T10:47:33.652Z,9.00
2018-01-29T10:48:33.650Z,11.30
2018-01-29T10:49:33.646Z,6.90
2018-01-29T10:50:33.644Z,4.20
2018-01-29T10:51:33.641Z,6.30
2018-01-29T10:52:33.639Z,6.10
2018-01-29T10:53:33.636Z,5.90
2018-01-29T10:54:33.633Z,9.60
2018-01-29T10:55:33.630Z,8.90
2018-01-29T10:56:33.629Z,9.40
2018-01-29T10:57:33.625Z,4.40
2018-01-29T10:58:33.621Z,7.90
2018-01-29T10:59:33.621Z,4.40
2018-01-29T11:00:33.618Z,7.40
2018-01-29T11:01:33.614Z,9.20
2018-01-29T11:02:33.610Z,4.30
2018-01-29T11:03:33.608Z,13.10
2018-01-29T11:04:33.606Z,7.40
2018-01-29T11:05:33.601Z,6.90
2018-01-29T11:06:33.598Z,10.30
2018-01-29T11:07:33.596Z,6.90
2018-01-29T11:08:33.594Z,9.30
2018-01-29T11:09:33.591Z,11.90
2018-01-29T11:10:33.587Z,16.20
2018-01-29T11:11:33.584Z,6.50
2018-01-29T11:12:33.582Z,4.50
2018-01-29T11:13:33.579Z,3.40
2018-01-29T11:14:33.575Z,9.90
2018-01-29T11:15:33.573Z,6.80
2018-01-29T11:16:33.571Z,3.20
2018-01-29T11:17:33.600Z,9.90
2018-01-29T11:18:33.565Z,7.50
2018-01-29T11:19:33.561Z,5.10
2018-01-29T11:20:33.557Z,5.40
2018-01-29T11:21:33.555Z,7.50
2018-01-29T11:22:33.552Z,4.40
2018-01-29T11:23:33.551Z,3.40
2018-01-29T11:24:33.547Z,5.90
2018-01-29T11:25:33.544Z,4.50
2018-01-29T11:26:33.541Z,2.50
2018-01-29T11:27:33.539Z,3.50
2018-01-29T11:28:33.574Z,6.70
2018-01-29T11:29:33.531Z,6.50
2018-01-29T11:30:33.529Z,10.60
2018-01-29T11:31:33.527Z,7.50
2018-01-29T11:32:33.524Z,4.00
2018-01-29T11:33:33.519Z,5.20
2018-01-29T11:34:33.517Z,5.90
2018-01-29T11:35:33.515Z,5.90
2018-01-29T11:36:33.512Z,4.10
2018-01-29T11:37:33.508Z,4.70
2018-01-29T11:38:33.505Z,6.10
2018-01-29T11:39:33.504Z,6.00
2018-01-29T11:40:33.501Z,6.70
2018-01-29T11:41:33.497Z,6.50
2018-01-29T11:42:33.493Z,5.80
2018-01-29T11:43:33.491Z,9.80
2018-01-29T11:44:33.489Z,8.20
2018-01-29T11:45:33.484Z,6.40
2018-01-29T11:46:33.481Z,4.70
2018-01-29T11:47:33.479Z,5.80
2018-01-29T11:48:33.478Z,8.20
2018-01-29T11:49:33.474Z,8.70
2018-01-29T11:50:33.469Z,7.90
2018-01-29T11:51:33.467Z,7.20
2018-01-29T11:52:33.465Z,4.50
2018-01-29T11:53:33.462Z,11.90
2018-01-29T11:54:33.460Z,7.00
2018-01-29T11:55:33.458Z,7.60
2018-01-29T11:56:33.454Z,7.30
2018-01-29T11:57:33.450Z,4.30
2018-01-29T11:58:33.446Z,5.20
2018-01-29T11:59:33.445Z,6.20
2018-01-29T12:00:33.442Z,5.70
2018-01-29T12:01:33.440Z,7.30
2018-01-29T12:02:33.436Z,8.30
2018-01-29T12:03:33.432Z,3.70
2018-01-29T12:04:33.432Z,4.00
2018-01-29T12:05:33.426Z,6.80
2018-01-29T12:06:33.422Z,3.90
2018-01-29T12:07:33.420Z,4.90
2018-01-29T12:08:33.418Z,6.70
2018-01-29T12:09:33.414Z,3.00
2018-01-29T12:10:33.411Z,4.60
2018-01-29T12:11:33.408Z,7.70
2018-01-29T12:12:33.407Z,4.50
2018-01-29T12:13:33.402Z,4.70
2018-01-29T12:14:33.400Z,5.90
2018-01-29T12:15:33.397Z,2.80
2018-01-29T12:16:33.394Z,3.10
2018-01-29T12:17:33.391Z,5.60
2018-01-29T12:18:33.388Z,6.70
2018-01-29T12:19:33.385Z,6.80
2018-01-29T12:20:33.380Z,4.50
2018-01-29T12:21:33.379Z,4.60
2018-01-29T12:22:33.376Z,5.00
2018-01-29T12:23:33.372Z,7.50
2018-01-29T12:24:33.370Z,6.50
2018-01-29T12:25:33.366Z,5.90
2018-01-29T12:26:33.364Z,7.00
2018-01-29T12:27:33.361Z,5.10
2018-01-29T12:28:33.356Z,5.10
2018-01-29T12:29:33.356Z,5.60
2018-01-29T12:30:33.353Z,3.00
2018-01-29T12:31:33.350Z,4.20
2018-01-29T12:32:33.348Z,4.90
2018-01-29T12:33:33.344Z,1.60
2018-01-29T12:34:33.341Z,7.70
2018-01-29T12:35:33.339Z,2.20
2018-01-29T12:36:33.335Z,2.20
2018-01-29T12:37:33.332Z,7.00
2018-01-29T12:38:33.329Z,3.90
2018-01-29T12:39:33.326Z,4.10
2018-01-29T12:40:33.324Z,2.10
2018-01-29T12:41:33.320Z,4.00
2018-01-29T12:42:33.317Z,2.50
2018-01-29T12:43:33.316Z,3.30
2018-01-29T12:44:33.313Z,4.00
2018-01-29T12:45:33.309Z,5.40
2018-01-29T12:46:33.307Z,3.10
2018-01-29T12:47:33.303Z,3.90
2018-01-29T12:48:33.305Z,4.00
2018-01-29T12:49:33.297Z,4.10
2018-01-29T12:50:33.295Z,4.40
2018-01-29T12:51:33.293Z,6.60
2018-01-29T12:52:33.290Z,2.20
2018-01-29T12:53:33.287Z,5.60
2018-01-29T12:54:33.284Z,5.40
2018-01-29T12:55:33.284Z,8.60
2018-01-29T12:56:33.280Z,4.10
2018-01-29T12:57:33.276Z,4.10
2018-01-29T12:58:33.272Z,4.30
2018-01-29T12:59:33.271Z,6.80
2018-01-29T13:00:33.270Z,6.40
2018-01-29T13:01:33.266Z,6.00
2018-01-29T13:02:33.262Z,5.60
2018-01-29T13:03:33.260Z,3.40
2018-01-29T13:04:33.260Z,5.80
2018-01-29T13:05:33.255Z,3.50
2018-01-29T13:06:33.253Z,10.30
2018-01-29T13:07:33.251Z,10.10
2018-01-29T13:08:33.249Z,5.10
2018-01-29T13:09:33.246Z,5.30